createdAt,value
2023-05-22T00:00:29.865Z,1.38
2023-05-22T00:02:59.751Z,1.33
2023-05-22T00:05:29.052Z,1.80
2023-05-22T00:07:58.666Z,1.30
2023-05-22T00:10:27.572Z,1.48
2023-05-22T00:12:56.605Z,1.10
2023-05-22T00:15:25.554Z,1.38
2023-05-22T00:17:54.682Z,1.35
2023-05-22T00:20:24.348Z,1.30
2023-05-22T00:22:54.547Z,1.30
2023-05-22T00:25:23.683Z,1.83
2023-05-22T00:27:52.632Z,1.80
2023-05-22T00:30:21.906Z,1.30
2023-05-22T00:32:51.140Z,1.48
2023-05-22T00:35:20.071Z,1.55
2023-05-22T00:37:49.275Z,1.80
2023-05-22T00:40:18.456Z,1.92
2023-05-22T00:42:47.910Z,1.75
2023-05-22T00:45:17.165Z,1.42
2023-05-22T00:47:46.184Z,1.40
2023-05-22T00:50:15.477Z,1.20
2023-05-22T00:52:46.686Z,1.58
2023-05-22T00:55:17.667Z,1.50
2023-05-22T00:57:47.213Z,1.50
2023-05-22T01:00:17.701Z,1.70
2023-05-22T01:02:47.515Z,1.60
2023-05-22T01:05:18.920Z,1.73
2023-05-22T01:07:47.967Z,1.48
2023-05-22T01:10:17.086Z,1.60
2023-05-22T01:13:02.844Z,1.30
2023-05-22T01:16:19.725Z,1.52
2023-05-22T01:19:03.619Z,1.52
2023-05-22T01:21:47.791Z,1.25
2023-05-22T01:25:00.283Z,1.50
2023-05-22T01:27:52.843Z,1.50
2023-05-22T01:30:43.446Z,1.70
2023-05-22T01:33:16.930Z,1.63
2023-05-22T01:35:54.827Z,1.40
2023-05-22T01:38:24.053Z,1.70
2023-05-22T01:40:53.409Z,1.52
2023-05-22T01:43:22.470Z,1.50
2023-05-22T01:45:52.241Z,1.92
2023-05-22T01:48:21.419Z,1.77
2023-05-22T01:50:54.386Z,1.85
2023-05-22T01:54:15.191Z,1.80
2023-05-22T01:57:00.905Z,2.10
2023-05-22T01:59:46.573Z,2.13
2023-05-22T02:02:19.169Z,1.98
2023-05-22T02:04:54.076Z,2.15
2023-05-22T02:07:25.860Z,2.00
2023-05-22T02:09:56.713Z,1.98
2023-05-22T02:12:26.598Z,2.15
2023-05-22T02:14:56.360Z,2.30
2023-05-22T02:17:25.466Z,2.55
2023-05-22T02:19:54.593Z,2.65
2023-05-22T02:22:23.684Z,3.45
2023-05-22T02:24:52.640Z,3.30
2023-05-22T02:27:21.752Z,3.33
2023-05-22T02:29:50.785Z,4.03
2023-05-22T02:32:20.185Z,3.78
2023-05-22T02:34:50.094Z,3.20
2023-05-22T02:37:20.904Z,3.75
2023-05-22T02:39:50.490Z,3.80
2023-05-22T02:42:19.861Z,3.55
2023-05-22T02:44:48.812Z,3.75
2023-05-22T02:47:18.071Z,3.42
2023-05-22T02:49:47.915Z,3.30
2023-05-22T02:52:16.970Z,3.67
2023-05-22T02:54:45.980Z,3.35
2023-05-22T02:57:15.086Z,3.88
2023-05-22T02:59:44.176Z,3.75
2023-05-22T03:02:13.406Z,4.00
2023-05-22T03:04:42.789Z,3.90
2023-05-22T03:07:13.144Z,4.45
2023-05-22T03:09:42.282Z,4.10
2023-05-22T03:12:11.689Z,3.92
2023-05-22T03:14:40.736Z,3.95
2023-05-22T03:17:09.672Z,4.20
2023-05-22T03:19:39.328Z,3.92
2023-05-22T03:22:08.342Z,4.50
2023-05-22T03:24:37.526Z,3.72
2023-05-22T03:27:06.927Z,3.90
2023-05-22T03:29:40.916Z,4.43
2023-05-22T03:32:10.313Z,4.28
2023-05-22T03:34:39.398Z,4.78
2023-05-22T03:37:11.260Z,4.00
2023-05-22T03:39:40.716Z,4.07
2023-05-22T03:42:24.536Z,4.28
2023-05-22T03:44:53.737Z,3.90
2023-05-22T03:47:23.147Z,4.70
2023-05-22T03:49:52.186Z,4.88
2023-05-22T03:52:21.252Z,5.20
2023-05-22T03:54:50.399Z,4.40
2023-05-22T03:57:20.818Z,4.18
2023-05-22T03:59:49.958Z,3.90
2023-05-22T04:02:19.037Z,4.57
2023-05-22T04:04:48.215Z,5.03
2023-05-22T04:07:19.155Z,4.80
2023-05-22T04:09:48.118Z,4.68
2023-05-22T04:12:17.209Z,4.35
2023-05-22T04:14:46.692Z,4.95
2023-05-22T04:17:16.034Z,4.70
2023-05-22T04:19:45.046Z,4.95
2023-05-22T04:22:13.985Z,3.92
2023-05-22T04:24:42.948Z,3.97
2023-05-22T04:27:12.085Z,4.25
2023-05-22T04:29:42.541Z,4.32
2023-05-22T04:32:11.672Z,4.13
2023-05-22T04:34:42.328Z,4.40
2023-05-22T04:37:11.311Z,4.18
2023-05-22T04:39:41.212Z,4.15
2023-05-22T04:42:10.332Z,4.50
2023-05-22T04:44:39.311Z,4.13
2023-05-22T04:47:12.212Z,4.43
2023-05-22T04:49:43.275Z,4.05
2023-05-22T04:52:12.744Z,4.18
2023-05-22T04:54:42.282Z,3.88
2023-05-22T04:57:11.534Z,3.85
2023-05-22T04:59:41.896Z,4.97
2023-05-22T05:02:11.260Z,4.38
2023-05-22T05:04:40.275Z,4.00
2023-05-22T05:07:09.791Z,4.57
2023-05-22T05:09:39.443Z,4.40
2023-05-22T05:12:08.693Z,4.28
2023-05-22T05:14:37.966Z,4.57
2023-05-22T05:17:07.070Z,3.83
2023-05-22T05:19:37.143Z,3.63
2023-05-22T05:22:06.905Z,4.15
2023-05-22T05:24:36.236Z,3.92
2023-05-22T05:27:05.546Z,4.07
2023-05-22T05:29:34.859Z,4.30
2023-05-22T05:32:28.061Z,4.18
2023-05-22T05:35:29.434Z,4.30
2023-05-22T05:38:11.125Z,4.15
2023-05-22T05:40:42.892Z,3.90
2023-05-22T05:43:16.044Z,3.97
2023-05-22T05:45:46.100Z,4.10
2023-05-22T05:48:15.136Z,4.72
2023-05-22T05:50:46.732Z,3.92
2023-05-22T05:53:16.739Z,4.10
2023-05-22T05:55:51.266Z,5.15
2023-05-22T05:58:21.390Z,4.13
2023-05-22T06:03:49.324Z,3.60
2023-05-22T06:06:30.557Z,3.70
2023-05-22T06:09:27.385Z,3.67
2023-05-22T06:12:15.961Z,3.47
2023-05-22T06:14:46.905Z,3.92
2023-05-22T06:17:17.637Z,3.88
2023-05-22T06:19:47.462Z,3.70
2023-05-22T06:22:17.478Z,3.63
2023-05-22T06:24:49.317Z,3.83
2023-05-22T06:27:23.699Z,3.90
2023-05-22T06:29:52.947Z,3.90
2023-05-22T06:32:22.295Z,4.47
2023-05-22T06:34:53.577Z,3.75
2023-05-22T06:37:24.922Z,4.32
2023-05-22T06:39:54.840Z,4.00
2023-05-22T06:42:44.232Z,4.03
2023-05-22T06:45:42.472Z,3.42
2023-05-22T06:48:30.150Z,3.53
2023-05-22T06:51:07.754Z,4.15
2023-05-22T06:53:41.168Z,3.67
2023-05-22T06:56:18.780Z,4.20
2023-05-22T06:58:57.039Z,3.95
2023-05-22T07:01:34.094Z,3.67
2023-05-22T07:06:50.782Z,3.67
2023-05-22T07:09:21.378Z,3.88
2023-05-22T07:11:51.172Z,3.83
2023-05-22T07:14:20.180Z,3.63
2023-05-22T07:16:49.469Z,3.70
2023-05-22T07:19:24.535Z,4.82
2023-05-22T07:21:55.229Z,4.45
2023-05-22T07:24:24.305Z,4.32
2023-05-22T07:26:54.029Z,4.22
2023-05-22T07:29:23.392Z,3.80
2023-05-22T07:31:55.196Z,3.40
2023-05-22T07:34:32.693Z,4.10
2023-05-22T07:37:09.137Z,3.95
2023-05-22T07:39:38.865Z,4.22
2023-05-22T07:42:08.807Z,3.88
2023-05-22T07:44:44.331Z,4.03
2023-05-22T07:47:13.415Z,3.95
2023-05-22T07:49:43.070Z,4.18
2023-05-22T07:52:13.105Z,3.65
2023-05-22T07:54:43.487Z,3.88
2023-05-22T07:57:14.973Z,3.50
2023-05-22T07:59:44.975Z,3.30
2023-05-22T08:02:14.991Z,3.72
2023-05-22T08:04:45.361Z,4.05
2023-05-22T08:07:14.432Z,4.50
2023-05-22T08:09:46.955Z,4.13
2023-05-22T08:12:15.978Z,3.63
2023-05-22T08:14:44.977Z,4.18
2023-05-22T08:17:14.147Z,4.07
2023-05-22T08:19:43.483Z,3.67
2023-05-22T08:22:12.508Z,3.88
2023-05-22T08:24:41.805Z,3.20
2023-05-22T08:27:10.780Z,3.83
2023-05-22T08:29:39.740Z,3.53
2023-05-22T08:32:09.280Z,3.67
2023-05-22T08:34:38.328Z,3.25
2023-05-22T08:37:07.610Z,3.72
2023-05-22T08:39:36.752Z,3.80
2023-05-22T08:42:06.959Z,3.47
2023-05-22T08:44:36.065Z,3.72
2023-05-22T08:47:12.102Z,3.28
2023-05-22T08:49:41.860Z,4.10
2023-05-22T08:52:14.544Z,3.42
2023-05-22T08:54:45.894Z,3.13
2023-05-22T08:57:15.014Z,3.03
2023-05-22T08:59:46.588Z,3.10
2023-05-22T09:02:17.632Z,3.50
2023-05-22T09:04:46.678Z,3.20
2023-05-22T09:07:15.570Z,3.38
2023-05-22T09:09:44.606Z,3.00
2023-05-22T09:12:14.527Z,3.00
2023-05-22T09:14:46.426Z,2.78
2023-05-22T09:17:18.508Z,3.40
2023-05-22T09:19:48.148Z,2.95
2023-05-22T09:22:17.437Z,2.80
2023-05-22T09:24:48.040Z,3.35
2023-05-22T09:27:17.017Z,2.90
2023-05-22T09:29:54.083Z,3.05
2023-05-22T09:32:23.473Z,2.58
2023-05-22T09:34:52.612Z,3.35
2023-05-22T09:37:21.830Z,3.35
2023-05-22T09:39:53.647Z,2.85
2023-05-22T09:42:25.455Z,3.13
2023-05-22T09:44:54.479Z,3.00
2023-05-22T09:47:23.553Z,3.97
2023-05-22T09:49:52.675Z,3.03
2023-05-22T09:52:23.137Z,3.08
2023-05-22T09:54:56.655Z,3.05
2023-05-22T09:57:29.931Z,2.85
2023-05-22T10:00:00.335Z,3.58
2023-05-22T10:02:29.825Z,3.30
2023-05-22T10:05:01.460Z,3.38
2023-05-22T10:07:44.880Z,3.55
2023-05-22T10:10:16.576Z,3.30
2023-05-22T10:13:07.553Z,2.83
2023-05-22T10:15:37.078Z,3.47
2023-05-22T10:18:07.297Z,3.33
2023-05-22T10:20:37.231Z,3.10
2023-05-22T10:23:07.224Z,3.30
2023-05-22T10:25:39.991Z,2.95
2023-05-22T10:28:09.803Z,3.10
2023-05-22T10:30:41.918Z,3.72
2023-05-22T10:33:38.531Z,3.45
2023-05-22T10:36:11.474Z,3.95
2023-05-22T10:38:58.625Z,3.70
2023-05-22T10:41:28.037Z,3.30
2023-05-22T10:43:58.773Z,3.80
2023-05-22T10:46:27.901Z,3.05
2023-05-22T10:48:58.384Z,4.25
2023-05-22T10:51:27.753Z,3.35
2023-05-22T10:54:06.329Z,4.10
2023-05-22T10:56:39.138Z,3.55
2023-05-22T10:59:10.918Z,3.60
2023-05-22T11:01:40.540Z,4.38
2023-05-22T11:04:16.689Z,3.38
2023-05-22T11:07:14.096Z,3.90
2023-05-22T11:09:49.475Z,3.70
2023-05-22T11:12:26.538Z,3.95
2023-05-22T11:14:57.966Z,3.60
2023-05-22T11:17:31.859Z,3.90
2023-05-22T11:20:13.266Z,3.72
2023-05-22T11:22:44.804Z,3.97
2023-05-22T11:25:19.313Z,4.15
2023-05-22T11:27:49.539Z,3.63
2023-05-22T11:30:18.715Z,3.92
2023-05-22T11:32:48.930Z,4.20
2023-05-22T11:35:19.961Z,3.85
2023-05-22T11:37:50.264Z,3.70
2023-05-22T11:40:27.063Z,4.03
2023-05-22T11:45:25.275Z,3.85
2023-05-22T11:47:54.424Z,4.00
2023-05-22T11:50:40.201Z,3.25
2023-05-22T11:53:09.910Z,3.50
2023-05-22T11:55:38.851Z,3.38
2023-05-22T11:58:07.880Z,4.05
2023-05-22T12:00:37.026Z,4.00
2023-05-22T12:03:07.676Z,3.40
2023-05-22T12:05:37.077Z,3.78
2023-05-22T12:08:06.367Z,3.50
2023-05-22T12:10:35.395Z,3.13
2023-05-22T12:13:04.693Z,3.22
2023-05-22T12:15:33.768Z,4.03
2023-05-22T12:18:03.148Z,3.10
2023-05-22T12:20:32.552Z,3.03
2023-05-22T12:23:01.511Z,2.70
2023-05-22T12:25:38.223Z,3.15
2023-05-22T12:30:43.718Z,2.75
2023-05-22T12:33:16.161Z,2.70
2023-05-22T12:35:45.140Z,3.15
2023-05-22T12:38:14.375Z,2.80
2023-05-22T12:40:43.578Z,3.13
2023-05-22T12:43:12.629Z,3.50
2023-05-22T12:45:43.208Z,3.45
2023-05-22T12:48:12.812Z,3.20
2023-05-22T12:50:42.247Z,2.60
2023-05-22T12:53:11.622Z,2.67
2023-05-22T12:55:41.408Z,2.80
2023-05-22T12:58:10.582Z,2.28
2023-05-22T13:00:39.792Z,2.67
2023-05-22T13:03:09.352Z,3.55
2023-05-22T13:05:38.540Z,2.10
2023-05-22T13:08:07.737Z,2.40
2023-05-22T13:10:36.775Z,2.38
2023-05-22T13:13:05.881Z,1.90
2023-05-22T13:15:35.209Z,2.08
2023-05-22T13:18:04.990Z,2.08
2023-05-22T13:20:34.998Z,2.05
2023-05-22T13:23:04.202Z,1.90
2023-05-22T13:25:33.144Z,1.95
2023-05-22T13:28:02.842Z,1.98
2023-05-22T13:30:31.810Z,2.55
2023-05-22T13:33:01.148Z,1.83
2023-05-22T13:35:30.218Z,1.85
2023-05-22T13:37:59.188Z,1.90
2023-05-22T13:40:28.160Z,2.35
2023-05-22T13:42:57.153Z,2.25
2023-05-22T13:45:27.919Z,2.13
2023-05-22T13:47:57.293Z,2.10
2023-05-22T13:50:26.310Z,1.92
2023-05-22T13:52:55.422Z,1.85
2023-05-22T13:55:24.486Z,1.45
2023-05-22T13:57:53.405Z,1.92
2023-05-22T14:00:22.283Z,2.40
2023-05-22T14:02:51.269Z,2.83
2023-05-22T14:05:20.190Z,2.22
2023-05-22T14:07:49.324Z,2.40
2023-05-22T14:10:17.974Z,2.15
2023-05-22T14:12:46.937Z,2.00
2023-05-22T14:15:16.857Z,2.42
2023-05-22T14:17:45.649Z,2.45
2023-05-22T14:20:14.483Z,2.53
2023-05-22T14:22:56.377Z,2.75
2023-05-22T14:25:30.147Z,5.20
2023-05-22T14:27:59.097Z,2.10
2023-05-22T14:30:28.056Z,2.30
2023-05-22T14:32:57.076Z,2.80
2023-05-22T14:35:26.037Z,2.30
2023-05-22T14:37:55.025Z,2.17
2023-05-22T14:40:24.059Z,2.80
2023-05-22T14:42:54.322Z,2.67
2023-05-22T14:45:23.678Z,3.13
2023-05-22T14:47:52.944Z,2.90
2023-05-22T14:50:22.538Z,2.15
2023-05-22T14:52:51.822Z,3.00
2023-05-22T14:55:24.817Z,3.42
2023-05-22T14:58:05.802Z,3.08
2023-05-22T15:00:34.770Z,2.95
2023-05-22T15:03:03.781Z,2.90
2023-05-22T15:05:32.876Z,3.08
2023-05-22T15:08:01.826Z,3.45
2023-05-22T15:10:31.029Z,3.95
2023-05-22T15:13:00.114Z,3.40
2023-05-22T15:15:29.226Z,3.53
2023-05-22T15:18:01.209Z,3.42
2023-05-22T15:20:31.639Z,3.80
2023-05-22T15:23:01.318Z,3.85
2023-05-22T15:25:32.573Z,3.72
2023-05-22T15:28:03.300Z,3.47
2023-05-22T15:30:36.200Z,3.15
2023-05-22T15:33:05.960Z,3.42
2023-05-22T15:35:35.060Z,3.45
2023-05-22T15:38:04.208Z,3.28
2023-05-22T15:40:33.449Z,3.33
2023-05-22T15:43:04.840Z,3.22
2023-05-22T15:45:34.902Z,4.03
2023-05-22T15:48:06.067Z,3.38
2023-05-22T15:50:35.835Z,5.03
2023-05-22T15:53:04.794Z,4.07
2023-05-22T15:55:34.749Z,3.30
2023-05-22T15:58:05.581Z,3.90
2023-05-22T16:00:39.538Z,3.70
2023-05-22T16:03:09.745Z,3.45
2023-05-22T16:05:40.627Z,3.15
2023-05-22T16:08:12.613Z,3.22
2023-05-22T16:10:42.931Z,3.22
2023-05-22T16:13:12.080Z,2.88
2023-05-22T16:15:41.925Z,3.42
2023-05-22T16:18:12.472Z,2.97
2023-05-22T16:20:41.655Z,3.10
2023-05-22T16:23:10.725Z,3.13
2023-05-22T16:25:39.899Z,2.90
2023-05-22T16:28:09.086Z,3.25
2023-05-22T16:30:38.247Z,3.33
2023-05-22T16:33:08.130Z,3.33
2023-05-22T16:35:37.362Z,2.67
2023-05-22T16:38:07.875Z,3.03
2023-05-22T16:40:38.781Z,2.92
2023-05-22T16:43:12.104Z,3.20
2023-05-22T16:45:47.189Z,2.20
2023-05-22T16:48:16.556Z,3.45
2023-05-22T16:50:47.362Z,2.95
2023-05-22T16:53:18.990Z,2.88
2023-05-22T16:55:48.014Z,3.25
2023-05-22T16:58:16.973Z,2.47
2023-05-22T17:00:46.199Z,2.97
2023-05-22T17:03:15.436Z,3.28
2023-05-22T17:05:44.812Z,3.50
2023-05-22T17:08:13.819Z,3.13
2023-05-22T17:10:42.790Z,3.28
2023-05-22T17:13:20.358Z,2.90
2023-05-22T17:15:52.571Z,3.13
2023-05-22T17:18:22.139Z,3.50
2023-05-22T17:20:54.669Z,2.85
2023-05-22T17:23:23.690Z,3.38
2023-05-22T17:25:52.643Z,3.33
2023-05-22T17:28:21.807Z,2.83
2023-05-22T17:30:50.985Z,2.92
2023-05-22T17:33:20.056Z,3.38
2023-05-22T17:35:49.198Z,3.17
2023-05-22T17:38:18.336Z,3.78
2023-05-22T17:40:47.626Z,3.13
2023-05-22T17:43:19.767Z,2.83
2023-05-22T17:45:52.071Z,2.95
2023-05-22T17:48:27.700Z,3.65
2023-05-22T17:50:56.973Z,3.00
2023-05-22T17:53:27.458Z,2.78
2023-05-22T17:55:56.429Z,3.28
2023-05-22T17:58:25.696Z,2.85
2023-05-22T18:00:54.885Z,3.20
2023-05-22T18:03:23.942Z,3.00
2023-05-22T18:05:53.125Z,2.65
2023-05-22T18:08:22.386Z,2.88
2023-05-22T18:10:51.658Z,2.80
2023-05-22T18:13:20.605Z,2.72
2023-05-22T18:15:50.945Z,3.08
2023-05-22T18:18:20.050Z,2.85
2023-05-22T18:20:49.020Z,2.88
2023-05-22T18:23:18.256Z,3.25
2023-05-22T18:25:47.380Z,3.30
2023-05-22T18:28:16.554Z,3.10
2023-05-22T18:30:50.371Z,2.83
2023-05-22T18:33:20.483Z,3.03
2023-05-22T18:35:49.484Z,3.70
2023-05-22T18:38:18.490Z,3.30
2023-05-22T18:40:48.044Z,2.70
2023-05-22T18:43:17.078Z,3.28
2023-05-22T18:45:46.172Z,2.83
2023-05-22T18:48:15.232Z,3.08
2023-05-22T18:50:44.453Z,2.67
2023-05-22T18:53:13.747Z,2.63
2023-05-22T18:55:43.208Z,2.60
2023-05-22T18:58:12.728Z,3.28
2023-05-22T19:00:42.017Z,3.10
2023-05-22T19:03:12.023Z,2.83
2023-05-22T19:05:41.406Z,3.28
2023-05-22T19:08:10.436Z,2.97
2023-05-22T19:10:39.666Z,3.00
2023-05-22T19:13:08.934Z,2.63
2023-05-22T19:15:39.170Z,3.10
2023-05-22T19:18:08.271Z,2.72
2023-05-22T19:20:37.673Z,3.60
2023-05-22T19:23:07.520Z,3.63
2023-05-22T19:25:37.074Z,2.72
2023-05-22T19:28:06.090Z,3.00
2023-05-22T19:30:35.099Z,2.83
2023-05-22T19:33:05.907Z,3.72
2023-05-22T19:35:36.279Z,2.90
2023-05-22T19:38:05.446Z,3.30
2023-05-22T19:40:34.509Z,3.25
2023-05-22T19:43:04.100Z,2.95
2023-05-22T19:45:33.113Z,3.20
2023-05-22T19:48:03.345Z,2.53
2023-05-22T19:50:33.171Z,3.25
2023-05-22T19:53:02.826Z,2.63
2023-05-22T19:55:32.081Z,3.30
2023-05-22T19:58:01.128Z,3.03
2023-05-22T20:00:32.229Z,3.80
2023-05-22T20:03:01.475Z,2.63
2023-05-22T20:05:30.573Z,3.60
2023-05-22T20:07:59.948Z,2.92
2023-05-22T20:10:29.634Z,2.95
2023-05-22T20:13:00.190Z,3.20
2023-05-22T20:15:31.310Z,3.10
2023-05-22T20:18:03.163Z,2.90
2023-05-22T20:20:32.196Z,2.20
2023-05-22T20:23:01.211Z,3.08
2023-05-22T20:25:30.244Z,3.00
2023-05-22T20:27:59.222Z,2.70
2023-05-22T20:30:28.381Z,2.40
2023-05-22T20:32:57.357Z,2.75
2023-05-22T20:35:27.284Z,2.40
2023-05-22T20:37:56.425Z,2.08
2023-05-22T20:40:27.380Z,2.42
2023-05-22T20:42:57.878Z,2.58
2023-05-22T20:45:27.281Z,2.78
2023-05-22T20:47:56.677Z,3.40
2023-05-22T20:50:25.729Z,2.58
2023-05-22T20:52:54.957Z,2.28
2023-05-22T20:55:24.102Z,2.75
2023-05-22T20:57:53.387Z,2.33
2023-05-22T21:00:22.684Z,2.55
2023-05-22T21:02:51.796Z,2.40
2023-05-22T21:05:20.902Z,2.55
2023-05-22T21:07:49.860Z,2.83
2023-05-22T21:10:18.775Z,2.50
2023-05-22T21:12:47.975Z,2.90
2023-05-22T21:15:16.968Z,3.40
2023-05-22T21:17:45.935Z,2.17
2023-05-22T21:20:15.001Z,2.50
2023-05-22T21:22:43.953Z,2.30
2023-05-22T21:25:12.897Z,2.67
2023-05-22T21:27:41.891Z,2.50
2023-05-22T21:30:14.044Z,2.40
2023-05-22T21:32:44.012Z,2.83
2023-05-22T21:35:13.079Z,2.55
2023-05-22T21:37:42.048Z,2.67
2023-05-22T21:40:11.527Z,2.97
2023-05-22T21:42:46.966Z,2.78
2023-05-22T21:45:16.510Z,2.40
2023-05-22T21:47:45.555Z,2.60
2023-05-22T21:50:14.616Z,2.47
2023-05-22T21:52:44.994Z,2.25
2023-05-22T21:55:13.950Z,2.20
2023-05-22T21:57:43.092Z,2.20
2023-05-22T22:00:13.340Z,2.85
2023-05-22T22:02:43.206Z,2.20
2023-05-22T22:05:14.815Z,2.30
2023-05-22T22:07:43.740Z,2.00
2023-05-22T22:10:12.882Z,2.08
2023-05-22T22:12:41.927Z,2.40
2023-05-22T22:15:11.398Z,2.25
2023-05-22T22:17:41.339Z,1.90
2023-05-22T22:20:10.999Z,2.20
2023-05-22T22:22:41.689Z,2.67
2023-05-22T22:25:11.464Z,2.22
2023-05-22T22:27:40.537Z,1.98
2023-05-22T22:30:10.725Z,2.50
2023-05-22T22:32:39.778Z,3.22
2023-05-22T22:35:09.435Z,2.30
2023-05-22T22:37:38.489Z,2.47
2023-05-22T22:40:08.017Z,2.45
2023-05-22T22:42:37.289Z,2.22
2023-05-22T22:45:07.864Z,2.33
2023-05-22T22:47:37.324Z,2.35
2023-05-22T22:50:06.860Z,2.53
2023-05-22T22:52:35.885Z,2.25
2023-05-22T22:55:07.165Z,2.63
2023-05-22T22:57:36.880Z,2.25
2023-05-22T23:00:06.455Z,2.10
2023-05-22T23:02:35.937Z,2.25
2023-05-22T23:05:04.993Z,2.28
2023-05-22T23:07:34.138Z,2.20
2023-05-22T23:10:03.279Z,2.17
2023-05-22T23:12:36.076Z,2.00
2023-05-22T23:15:05.967Z,2.40
2023-05-22T23:17:34.940Z,2.25
2023-05-22T23:20:04.313Z,1.98
2023-05-22T23:22:33.316Z,2.15
2023-05-22T23:25:02.327Z,2.65
2023-05-22T23:27:31.340Z,2.40
2023-05-22T23:30:00.307Z,2.33
2023-05-22T23:32:30.222Z,2.22
2023-05-22T23:34:59.256Z,2.95
2023-05-22T23:37:28.417Z,2.03
2023-05-22T23:39:57.295Z,2.30
2023-05-22T23:42:26.554Z,2.08
2023-05-22T23:44:55.435Z,1.88
2023-05-22T23:47:24.387Z,2.25
2023-05-22T23:49:56.051Z,2.42
2023-05-22T23:52:25.036Z,2.17
2023-05-22T23:54:53.976Z,2.40
2023-05-22T23:57:22.981Z,2.22
2023-05-22T23:59:52.076Z,2.30
